createdAt,value
2022-07-31T00:06:46.422Z,2.30
2022-07-31T00:17:08.014Z,2.17
2022-07-31T00:27:29.652Z,5.30
2022-07-31T00:37:54.809Z,3.08
2022-07-31T00:48:23.892Z,1.88
2022-07-31T00:58:45.432Z,3.33
2022-07-31T01:09:07.011Z,2.70
2022-07-31T01:19:37.886Z,4.15
2022-07-31T01:30:03.550Z,2.03
2022-07-31T01:40:35.592Z,2.28
2022-07-31T01:50:58.906Z,3.97
2022-07-31T02:01:27.023Z,3.97
2022-07-31T02:11:54.440Z,2.30
2022-07-31T02:22:16.836Z,4.85
2022-07-31T02:32:39.327Z,2.63
2022-07-31T02:43:01.100Z,3.08
2022-07-31T02:53:24.758Z,3.03
2022-07-31T03:03:46.290Z,2.33
2022-07-31T03:14:10.568Z,1.70
2022-07-31T03:24:32.223Z,3.97
2022-07-31T03:34:56.959Z,4.18
2022-07-31T03:45:20.888Z,4.43
2022-07-31T03:55:44.055Z,3.50
2022-07-31T04:06:05.635Z,2.75
2022-07-31T04:16:27.179Z,3.72
2022-07-31T04:26:50.510Z,5.90
2022-07-31T04:37:12.093Z,5.20
2022-07-31T04:47:33.588Z,4.50
2022-07-31T04:57:55.118Z,5.50
2022-07-31T05:08:16.677Z,5.97
2022-07-31T05:18:38.309Z,3.15
2022-07-31T05:29:00.188Z,4.88
2022-07-31T05:39:21.756Z,3.10
2022-07-31T05:49:43.397Z,3.97
2022-07-31T06:00:05.690Z,3.88
2022-07-31T06:10:28.285Z,4.32
2022-07-31T06:20:49.893Z,4.57
2022-07-31T06:31:21.664Z,3.67
2022-07-31T06:41:49.294Z,5.07
2022-07-31T06:52:10.924Z,4.38
2022-07-31T07:02:32.475Z,8.52
2022-07-31T07:12:54.326Z,4.15
2022-07-31T07:23:15.935Z,3.75
2022-07-31T07:33:41.263Z,5.60
2022-07-31T07:44:05.135Z,4.78
2022-07-31T07:54:30.027Z,4.82
2022-07-31T08:04:52.016Z,3.45
2022-07-31T08:15:13.568Z,3.10
2022-07-31T08:25:35.104Z,8.25
2022-07-31T08:35:59.056Z,4.15
2022-07-31T08:46:22.138Z,5.65
2022-07-31T08:56:44.015Z,7.75
2022-07-31T09:07:06.210Z,5.43
2022-07-31T09:17:53.711Z,3.42
2022-07-31T09:28:15.917Z,4.15
2022-07-31T09:38:43.431Z,7.20
2022-07-31T09:49:05.196Z,3.17
2022-07-31T09:59:26.865Z,5.93
2022-07-31T10:09:48.727Z,4.88
2022-07-31T10:20:17.384Z,3.85
2022-07-31T10:30:39.119Z,7.20
2022-07-31T10:41:17.345Z,3.80
2022-07-31T10:51:50.107Z,5.30
2022-07-31T11:02:11.804Z,5.38
2022-07-31T11:12:33.444Z,3.08
2022-07-31T11:23:06.422Z,5.13
2022-07-31T11:33:42.170Z,6.03
2022-07-31T11:44:04.973Z,8.43
2022-07-31T11:54:26.744Z,8.57
2022-07-31T12:04:49.227Z,4.90
2022-07-31T12:15:18.863Z,5.82
2022-07-31T12:25:42.230Z,5.10
2022-07-31T12:36:12.309Z,5.65
2022-07-31T12:46:36.749Z,6.00
2022-07-31T12:56:58.279Z,6.57
2022-07-31T13:07:19.892Z,8.00
2022-07-31T13:17:47.792Z,8.32
2022-07-31T13:28:12.373Z,5.25
2022-07-31T13:38:34.059Z,9.95
2022-07-31T13:48:59.118Z,12.90
2022-07-31T13:59:21.535Z,12.13
2022-07-31T14:09:51.473Z,14.45
2022-07-31T14:20:17.183Z,16.45
2022-07-31T14:30:45.592Z,19.35
2022-07-31T14:41:08.037Z,16.92
2022-07-31T14:51:29.628Z,12.98
2022-07-31T15:01:51.150Z,15.05
2022-07-31T15:12:16.762Z,15.52
2022-07-31T15:22:38.374Z,16.85
2022-07-31T15:33:02.172Z,15.00
2022-07-31T15:43:23.714Z,19.35
2022-07-31T15:53:45.211Z,14.10
2022-07-31T16:04:16.609Z,15.32
2022-07-31T16:14:38.579Z,12.13
2022-07-31T16:25:00.331Z,9.93
2022-07-31T16:35:22.553Z,10.60
2022-07-31T16:45:44.137Z,11.45
2022-07-31T16:56:06.462Z,9.63
2022-07-31T17:06:36.346Z,12.20
2022-07-31T17:16:59.276Z,10.88
2022-07-31T17:27:22.511Z,15.18
2022-07-31T17:37:45.178Z,12.40
2022-07-31T17:48:07.813Z,12.48
2022-07-31T17:58:29.370Z,13.88
2022-07-31T18:08:51.202Z,12.68
2022-07-31T18:19:13.614Z,14.55
2022-07-31T18:29:35.176Z,15.20
2022-07-31T18:39:59.581Z,12.15
2022-07-31T18:51:00.587Z,12.82
2022-07-31T19:01:03.496Z,10.40
2022-07-31T19:11:25.148Z,6.63
2022-07-31T19:21:46.724Z,6.43
2022-07-31T19:32:08.613Z,2.72
2022-07-31T19:42:30.317Z,3.15
2022-07-31T19:52:52.626Z,2.40
2022-07-31T20:03:14.308Z,2.50
2022-07-31T20:13:38.526Z,1.30
2022-07-31T20:24:01.421Z,1.20
2022-07-31T20:34:23.632Z,3.08
2022-07-31T20:44:45.321Z,1.08
2022-07-31T20:55:07.070Z,1.23
2022-07-31T21:05:30.646Z,1.75
2022-07-31T21:15:53.198Z,0.60
2022-07-31T21:26:15.582Z,1.80
2022-07-31T21:36:37.430Z,0.55
2022-07-31T21:47:01.478Z,1.02
2022-07-31T21:57:25.236Z,2.13
2022-07-31T22:07:49.608Z,0.80
2022-07-31T22:18:11.374Z,0.50
2022-07-31T22:28:33.070Z,1.50
2022-07-31T22:38:55.042Z,1.48
2022-07-31T22:49:18.106Z,1.95
2022-07-31T22:59:40.084Z,3.63
2022-07-31T23:10:02.414Z,1.02
2022-07-31T23:20:23.948Z,2.20
2022-07-31T23:30:45.494Z,1.85
2022-07-31T23:41:07.457Z,1.90
2022-07-31T23:51:29.054Z,2.00
